createdAt,value
2023-05-19T00:02:05.423Z,1.55
2023-05-19T00:04:35.360Z,1.40
2023-05-19T00:07:02.584Z,1.70
2023-05-19T00:09:30.095Z,1.60
2023-05-19T00:11:57.564Z,1.60
2023-05-19T00:14:25.038Z,1.90
2023-05-19T00:16:52.500Z,1.60
2023-05-19T00:19:19.800Z,1.92
2023-05-19T00:21:48.438Z,1.60
2023-05-19T00:24:15.701Z,1.60
2023-05-19T00:26:42.916Z,1.67
2023-05-19T00:29:10.192Z,1.98
2023-05-19T00:31:37.484Z,1.42
2023-05-19T00:34:04.733Z,1.60
2023-05-19T00:36:32.011Z,1.70
2023-05-19T00:39:00.587Z,1.80
2023-05-19T00:41:27.849Z,1.40
2023-05-19T00:43:55.124Z,1.63
2023-05-19T00:46:23.042Z,1.73
2023-05-19T00:48:50.409Z,1.73
2023-05-19T00:51:17.683Z,1.70
2023-05-19T00:53:48.373Z,1.95
2023-05-19T00:56:17.190Z,1.63
2023-05-19T00:58:44.480Z,1.60
2023-05-19T01:01:12.137Z,1.60
2023-05-19T01:03:40.739Z,1.67
2023-05-19T01:06:08.377Z,1.48
2023-05-19T01:08:36.174Z,1.52
2023-05-19T01:11:03.428Z,1.80
2023-05-19T01:13:32.048Z,1.60
2023-05-19T01:16:01.034Z,1.52
2023-05-19T01:18:30.907Z,1.40
2023-05-19T01:20:59.471Z,1.80
2023-05-19T01:23:29.125Z,1.50
2023-05-19T01:26:01.596Z,1.35
2023-05-19T01:28:34.559Z,1.60
2023-05-19T01:31:04.562Z,1.50
2023-05-19T01:33:31.957Z,1.77
2023-05-19T01:35:59.220Z,1.50
2023-05-19T01:38:26.495Z,1.40
2023-05-19T01:40:53.728Z,1.45
2023-05-19T01:43:21.560Z,1.70
2023-05-19T01:45:49.104Z,2.10
2023-05-19T01:48:17.720Z,1.77
2023-05-19T01:50:45.081Z,1.50
2023-05-19T01:53:12.326Z,1.70
2023-05-19T01:55:43.259Z,1.98
2023-05-19T01:58:11.332Z,1.52
2023-05-19T02:00:42.103Z,1.75
2023-05-19T02:03:10.740Z,1.33
2023-05-19T02:05:40.892Z,1.67
2023-05-19T02:10:35.303Z,1.90
2023-05-19T02:13:02.566Z,1.65
2023-05-19T02:15:30.730Z,1.75
2023-05-19T02:17:58.077Z,1.70
2023-05-19T02:20:25.421Z,1.67
2023-05-19T02:22:53.968Z,1.90
2023-05-19T02:25:21.518Z,1.80
2023-05-19T02:27:49.228Z,1.63
2023-05-19T02:30:16.525Z,1.70
2023-05-19T02:32:46.633Z,1.45
2023-05-19T02:37:41.082Z,1.92
2023-05-19T02:40:10.875Z,1.65
2023-05-19T02:42:38.143Z,1.73
2023-05-19T02:45:05.890Z,1.92
2023-05-19T02:47:34.733Z,1.98
2023-05-19T02:50:04.113Z,1.73
2023-05-19T02:52:31.355Z,2.00
2023-05-19T02:54:58.612Z,1.40
2023-05-19T02:57:27.578Z,1.45
2023-05-19T02:59:55.006Z,1.60
2023-05-19T03:02:22.258Z,1.90
2023-05-19T03:04:49.965Z,1.77
2023-05-19T03:07:17.229Z,1.70
2023-05-19T03:09:44.465Z,1.63
2023-05-19T03:12:11.791Z,1.65
2023-05-19T03:14:41.062Z,1.65
2023-05-19T03:17:10.074Z,1.67
2023-05-19T03:19:37.391Z,1.67
2023-05-19T03:22:04.908Z,1.98
2023-05-19T03:24:32.615Z,1.77
2023-05-19T03:26:59.885Z,2.03
2023-05-19T03:29:27.133Z,1.60
2023-05-19T03:31:55.679Z,1.63
2023-05-19T03:34:23.378Z,1.60
2023-05-19T03:36:50.607Z,1.92
2023-05-19T03:39:17.887Z,1.90
2023-05-19T03:41:45.144Z,1.98
2023-05-19T03:44:12.395Z,1.60
2023-05-19T03:46:39.622Z,1.60
2023-05-19T03:49:08.409Z,1.55
2023-05-19T03:51:36.546Z,1.90
2023-05-19T03:54:04.410Z,1.95
2023-05-19T03:56:32.640Z,1.95
2023-05-19T03:59:00.175Z,1.70
2023-05-19T04:01:27.510Z,1.98
2023-05-19T04:03:54.846Z,1.70
2023-05-19T04:06:23.460Z,1.83
2023-05-19T04:08:50.725Z,1.65
2023-05-19T04:11:19.855Z,1.80
2023-05-19T04:13:47.101Z,1.92
2023-05-19T04:16:14.547Z,1.80
2023-05-19T04:18:42.252Z,1.83
2023-05-19T04:21:09.482Z,1.60
2023-05-19T04:23:38.033Z,1.70
2023-05-19T04:26:06.739Z,1.90
2023-05-19T04:28:36.599Z,1.55
2023-05-19T04:31:03.926Z,1.75
2023-05-19T04:33:31.153Z,2.03
2023-05-19T04:35:58.399Z,1.73
2023-05-19T04:38:25.774Z,1.83
2023-05-19T04:40:54.336Z,1.80
2023-05-19T04:43:22.165Z,1.88
2023-05-19T04:45:51.345Z,1.85
2023-05-19T04:48:18.983Z,1.95
2023-05-19T04:50:48.707Z,1.70
2023-05-19T04:53:15.933Z,2.25
2023-05-19T04:55:43.178Z,2.17
2023-05-19T04:58:11.870Z,2.20
2023-05-19T05:00:39.134Z,2.08
2023-05-19T05:03:07.156Z,2.40
2023-05-19T05:05:35.106Z,1.85
2023-05-19T05:08:03.125Z,1.40
2023-05-19T05:10:30.756Z,1.92
2023-05-19T05:12:58.486Z,1.88
2023-05-19T05:15:28.768Z,1.80
2023-05-19T05:17:56.391Z,1.92
2023-05-19T05:20:24.002Z,1.77
2023-05-19T05:22:51.510Z,2.00
2023-05-19T05:25:19.345Z,1.70
2023-05-19T05:27:46.599Z,1.95
2023-05-19T05:30:14.050Z,1.85
2023-05-19T05:32:42.721Z,1.75
2023-05-19T05:35:10.436Z,1.88
2023-05-19T05:37:37.712Z,1.75
2023-05-19T05:40:06.936Z,1.80
2023-05-19T05:42:34.258Z,1.33
2023-05-19T05:45:01.535Z,2.00
2023-05-19T05:47:29.221Z,1.88
2023-05-19T05:49:58.190Z,1.90
2023-05-19T05:52:25.692Z,2.10
2023-05-19T05:54:53.205Z,2.05
2023-05-19T05:57:20.789Z,2.00
2023-05-19T05:59:48.046Z,1.90
2023-05-19T06:02:15.350Z,1.88
2023-05-19T06:04:42.728Z,1.90
2023-05-19T06:07:11.402Z,1.80
2023-05-19T06:09:38.714Z,1.75
2023-05-19T06:12:06.569Z,2.00
2023-05-19T06:14:33.857Z,1.50
2023-05-19T06:17:01.132Z,1.65
2023-05-19T06:19:28.500Z,1.90
2023-05-19T06:21:55.902Z,2.05
2023-05-19T06:24:24.485Z,1.90
2023-05-19T06:26:51.722Z,2.20
2023-05-19T06:29:18.979Z,1.80
2023-05-19T06:31:46.447Z,1.80
2023-05-19T06:34:17.505Z,1.65
2023-05-19T06:36:44.803Z,1.88
2023-05-19T06:39:12.048Z,2.03
2023-05-19T06:41:40.705Z,1.70
2023-05-19T06:44:08.054Z,1.80
2023-05-19T06:46:35.441Z,1.90
2023-05-19T06:49:02.718Z,1.63
2023-05-19T06:51:30.002Z,1.42
2023-05-19T06:53:57.337Z,1.80
2023-05-19T06:56:24.580Z,1.90
2023-05-19T06:58:53.139Z,1.80
2023-05-19T07:01:20.472Z,1.70
2023-05-19T07:03:47.914Z,1.88
2023-05-19T07:06:15.317Z,1.90
2023-05-19T07:08:42.612Z,1.88
2023-05-19T07:11:10.250Z,1.95
2023-05-19T07:13:37.499Z,1.80
2023-05-19T07:16:06.393Z,1.77
2023-05-19T07:18:33.674Z,1.60
2023-05-19T07:21:00.971Z,1.70
2023-05-19T07:23:28.219Z,1.77
2023-05-19T07:25:56.035Z,1.90
2023-05-19T07:28:23.377Z,1.85
2023-05-19T07:30:50.701Z,1.67
2023-05-19T07:33:19.307Z,1.80
2023-05-19T07:35:46.607Z,1.90
2023-05-19T07:38:13.943Z,1.60
2023-05-19T07:40:41.185Z,1.80
2023-05-19T07:43:08.472Z,1.90
2023-05-19T07:45:35.790Z,1.85
2023-05-19T07:48:03.194Z,1.80
2023-05-19T07:50:32.160Z,1.75
2023-05-19T07:52:59.589Z,1.90
2023-05-19T07:55:26.868Z,1.90
2023-05-19T07:57:54.198Z,1.73
2023-05-19T08:00:21.595Z,1.92
2023-05-19T08:02:48.966Z,2.00
2023-05-19T08:05:16.280Z,2.30
2023-05-19T08:07:44.889Z,1.75
2023-05-19T08:10:12.130Z,2.25
2023-05-19T08:12:39.413Z,1.70
2023-05-19T08:15:07.382Z,1.70
2023-05-19T08:17:34.697Z,1.90
2023-05-19T08:20:02.013Z,1.75
2023-05-19T08:22:29.299Z,1.67
2023-05-19T08:24:58.013Z,1.70
2023-05-19T08:27:25.371Z,1.80
2023-05-19T08:29:52.614Z,1.60
2023-05-19T08:32:19.899Z,1.65
2023-05-19T08:34:47.224Z,1.90
2023-05-19T08:37:14.512Z,1.70
2023-05-19T08:39:41.795Z,1.73
2023-05-19T08:42:11.416Z,1.65
2023-05-19T08:44:39.972Z,2.15
2023-05-19T08:47:12.501Z,1.88
2023-05-19T08:49:43.300Z,1.73
2023-05-19T08:52:11.125Z,1.65
2023-05-19T08:54:39.962Z,1.50
2023-05-19T08:57:07.851Z,1.80
2023-05-19T08:59:36.434Z,1.88
2023-05-19T09:02:03.837Z,1.75
2023-05-19T09:04:31.163Z,1.80
2023-05-19T09:06:58.773Z,1.40
2023-05-19T09:09:26.072Z,1.63
2023-05-19T09:11:53.382Z,1.70
2023-05-19T09:14:20.619Z,1.75
2023-05-19T09:16:51.014Z,1.45
2023-05-19T09:19:18.391Z,1.70
2023-05-19T09:21:46.292Z,1.60
2023-05-19T09:24:13.549Z,1.48
2023-05-19T09:26:41.185Z,1.60
2023-05-19T09:29:11.710Z,1.55
2023-05-19T09:31:39.572Z,1.67
2023-05-19T09:34:13.743Z,2.10
2023-05-19T09:36:42.123Z,1.70
2023-05-19T09:39:15.662Z,1.58
2023-05-19T09:41:42.932Z,1.65
2023-05-19T09:44:13.299Z,1.80
2023-05-19T09:46:48.165Z,1.52
2023-05-19T09:49:20.564Z,1.63
2023-05-19T09:51:49.766Z,1.95
2023-05-19T09:54:17.152Z,1.77
2023-05-19T09:56:44.450Z,1.80
2023-05-19T09:59:11.701Z,1.90
2023-05-19T10:01:41.098Z,1.90
2023-05-19T10:04:08.728Z,1.85
2023-05-19T10:06:37.424Z,1.52
2023-05-19T10:09:04.804Z,1.73
2023-05-19T10:11:32.039Z,1.48
2023-05-19T10:13:59.298Z,1.65
2023-05-19T10:16:26.592Z,1.70
2023-05-19T10:18:53.925Z,1.83
2023-05-19T10:21:21.236Z,1.60
2023-05-19T10:23:49.801Z,1.77
2023-05-19T10:26:17.168Z,1.52
2023-05-19T10:28:44.434Z,1.70
2023-05-19T10:31:12.319Z,1.88
2023-05-19T10:33:42.402Z,1.42
2023-05-19T10:38:42.845Z,1.58
2023-05-19T10:41:13.912Z,1.80
2023-05-19T10:43:45.925Z,1.45
2023-05-19T10:46:13.273Z,1.27
2023-05-19T10:48:40.807Z,1.60
2023-05-19T10:51:12.035Z,1.52
2023-05-19T10:53:41.453Z,1.63
2023-05-19T10:56:10.157Z,1.60
2023-05-19T10:58:39.337Z,1.70
2023-05-19T11:01:10.417Z,1.60
2023-05-19T11:03:44.231Z,1.25
2023-05-19T11:06:21.106Z,1.65
2023-05-19T11:08:48.938Z,1.50
2023-05-19T11:11:16.557Z,1.67
2023-05-19T11:13:47.592Z,1.50
2023-05-19T11:16:15.066Z,1.60
2023-05-19T11:18:42.390Z,1.58
2023-05-19T11:21:09.717Z,1.48
2023-05-19T11:23:38.849Z,1.50
2023-05-19T11:26:06.807Z,1.50
2023-05-19T11:28:34.136Z,1.40
2023-05-19T11:31:02.745Z,1.73
2023-05-19T11:33:30.202Z,1.80
2023-05-19T11:38:17.802Z,1.40
2023-05-19T11:40:45.160Z,1.70
2023-05-19T11:43:12.414Z,1.60
2023-05-19T11:45:39.758Z,1.77
2023-05-19T11:48:10.356Z,1.67
2023-05-19T11:50:38.383Z,1.40
2023-05-19T11:53:05.673Z,1.52
2023-05-19T11:55:33.542Z,1.50
2023-05-19T11:58:04.442Z,1.50
2023-05-19T12:00:37.104Z,1.60
2023-05-19T12:03:04.496Z,1.30
2023-05-19T12:05:35.470Z,1.23
2023-05-19T12:08:06.212Z,1.60
2023-05-19T12:10:35.576Z,1.50
2023-05-19T12:13:03.325Z,1.30
2023-05-19T12:15:30.693Z,1.70
2023-05-19T12:17:58.326Z,1.23
2023-05-19T12:20:25.698Z,1.65
2023-05-19T12:22:55.883Z,1.65
2023-05-19T12:27:52.549Z,1.30
2023-05-19T12:30:19.947Z,1.38
2023-05-19T12:32:49.034Z,1.17
2023-05-19T12:35:16.630Z,1.40
2023-05-19T12:37:43.938Z,1.30
2023-05-19T12:40:15.782Z,1.50
2023-05-19T12:42:45.029Z,1.50
2023-05-19T12:45:12.432Z,1.50
2023-05-19T12:47:39.801Z,1.40
2023-05-19T12:50:09.137Z,1.50
2023-05-19T12:52:42.119Z,1.43
2023-05-19T12:55:10.913Z,1.23
2023-05-19T12:57:39.790Z,1.13
2023-05-19T13:00:08.177Z,1.40
2023-05-19T13:02:36.430Z,1.40
2023-05-19T13:05:04.600Z,1.33
2023-05-19T13:07:32.092Z,1.30
2023-05-19T13:09:59.393Z,1.30
2023-05-19T13:12:27.492Z,1.33
2023-05-19T13:14:56.105Z,1.30
2023-05-19T13:17:23.460Z,1.40
2023-05-19T13:19:50.918Z,1.45
2023-05-19T13:22:18.352Z,1.60
2023-05-19T13:24:45.620Z,1.38
2023-05-19T13:27:12.952Z,1.30
2023-05-19T13:29:40.213Z,1.33
2023-05-19T13:32:09.090Z,1.30
2023-05-19T13:34:36.381Z,1.33
2023-05-19T13:37:03.709Z,1.40
2023-05-19T13:39:31.137Z,1.30
2023-05-19T13:41:59.340Z,1.30
2023-05-19T13:44:26.651Z,1.17
2023-05-19T13:46:53.955Z,1.17
2023-05-19T13:49:22.809Z,1.50
2023-05-19T13:51:50.090Z,1.38
2023-05-19T13:54:18.263Z,1.23
2023-05-19T13:56:46.943Z,1.35
2023-05-19T13:59:14.237Z,1.20
2023-05-19T14:01:41.568Z,1.50
2023-05-19T14:04:08.983Z,1.20
2023-05-19T14:06:38.212Z,1.45
2023-05-19T14:09:06.329Z,1.55
2023-05-19T14:11:33.604Z,1.35
2023-05-19T14:14:01.007Z,1.30
2023-05-19T14:16:28.672Z,1.30
2023-05-19T14:18:56.085Z,1.40
2023-05-19T14:21:23.378Z,1.20
2023-05-19T14:23:51.939Z,1.25
2023-05-19T14:26:19.652Z,1.20
2023-05-19T14:28:46.994Z,1.30
2023-05-19T14:31:14.354Z,1.38
2023-05-19T14:33:41.648Z,1.30
2023-05-19T14:36:08.916Z,1.40
2023-05-19T14:38:36.181Z,1.30
2023-05-19T14:41:04.916Z,1.60
2023-05-19T14:43:32.181Z,1.60
2023-05-19T14:45:59.566Z,1.30
2023-05-19T14:48:27.012Z,1.20
2023-05-19T14:50:54.327Z,1.40
2023-05-19T14:53:21.591Z,1.40
2023-05-19T14:55:49.266Z,1.50
2023-05-19T14:58:28.200Z,1.38
2023-05-19T15:00:57.978Z,1.23
2023-05-19T15:03:25.565Z,1.38
2023-05-19T15:05:52.903Z,1.25
2023-05-19T15:08:20.196Z,1.48
2023-05-19T15:10:49.023Z,1.10
2023-05-19T15:13:18.718Z,1.10
2023-05-19T15:15:46.174Z,1.55
2023-05-19T15:18:15.986Z,1.30
2023-05-19T15:23:10.936Z,1.30
2023-05-19T15:25:38.222Z,1.45
2023-05-19T15:28:05.535Z,1.30
2023-05-19T15:30:34.368Z,1.52
2023-05-19T15:33:01.779Z,1.60
2023-05-19T15:35:29.147Z,1.70
2023-05-19T15:37:56.388Z,1.20
2023-05-19T15:40:23.679Z,1.20
2023-05-19T15:42:50.928Z,1.30
2023-05-19T15:45:18.332Z,1.20
2023-05-19T15:47:48.452Z,1.30
2023-05-19T15:52:44.191Z,1.30
2023-05-19T15:55:11.433Z,1.40
2023-05-19T15:57:38.649Z,1.30
2023-05-19T16:00:06.445Z,1.38
2023-05-19T16:02:33.774Z,1.73
2023-05-19T16:05:02.386Z,1.20
2023-05-19T16:07:29.642Z,1.20
2023-05-19T16:09:57.006Z,1.52
2023-05-19T16:12:24.627Z,1.40
2023-05-19T16:14:52.031Z,1.30
2023-05-19T16:17:19.272Z,1.60
2023-05-19T16:19:46.502Z,1.23
2023-05-19T16:22:15.195Z,1.40
2023-05-19T16:24:42.563Z,1.35
2023-05-19T16:27:09.824Z,1.63
2023-05-19T16:29:37.153Z,1.23
2023-05-19T16:32:04.733Z,1.35
2023-05-19T16:34:32.133Z,1.30
2023-05-19T16:36:59.542Z,1.20
2023-05-19T16:39:28.096Z,1.60
2023-05-19T16:41:55.419Z,1.27
2023-05-19T16:44:24.358Z,1.50
2023-05-19T16:46:51.591Z,1.40
2023-05-19T16:49:18.825Z,1.48
2023-05-19T16:51:47.578Z,1.38
2023-05-19T16:56:44.678Z,1.50
2023-05-19T16:59:12.002Z,1.27
2023-05-19T17:01:39.412Z,1.52
2023-05-19T17:04:06.824Z,1.42
2023-05-19T17:06:34.075Z,1.70
2023-05-19T17:09:01.849Z,1.48
2023-05-19T17:11:29.102Z,1.63
2023-05-19T17:13:57.676Z,1.50
2023-05-19T17:16:25.062Z,1.30
2023-05-19T17:18:52.370Z,1.58
2023-05-19T17:21:19.639Z,1.40
2023-05-19T17:23:46.886Z,1.40
2023-05-19T17:26:15.730Z,1.42
2023-05-19T17:28:43.014Z,1.33
2023-05-19T17:31:12.184Z,1.50
2023-05-19T17:33:39.606Z,1.30
2023-05-19T17:36:07.478Z,1.70
2023-05-19T17:38:35.009Z,1.30
2023-05-19T17:41:02.412Z,1.50
2023-05-19T17:43:29.791Z,1.25
2023-05-19T17:45:58.879Z,1.40
2023-05-19T17:48:29.517Z,1.50
2023-05-19T17:50:56.896Z,1.45
2023-05-19T17:53:24.392Z,1.50
2023-05-19T17:55:53.989Z,1.40
2023-05-19T17:58:21.548Z,1.48
2023-05-19T18:00:49.336Z,1.52
2023-05-19T18:03:17.003Z,1.85
2023-05-19T18:05:45.901Z,1.60
2023-05-19T18:08:13.547Z,1.77
2023-05-19T18:10:41.266Z,1.42
2023-05-19T18:13:08.951Z,1.50
2023-05-19T18:15:36.319Z,1.48
2023-05-19T18:18:05.415Z,1.42
2023-05-19T18:20:33.832Z,1.50
2023-05-19T18:23:02.722Z,1.40
2023-05-19T18:25:29.964Z,1.60
2023-05-19T18:27:57.221Z,1.60
2023-05-19T18:30:24.479Z,1.55
2023-05-19T18:32:51.768Z,1.50
2023-05-19T18:35:20.654Z,1.30
2023-05-19T18:37:47.920Z,1.50
2023-05-19T18:40:16.567Z,1.40
2023-05-19T18:42:43.855Z,1.58
2023-05-19T18:45:11.337Z,1.30
2023-05-19T18:47:38.613Z,1.48
2023-05-19T18:50:06.896Z,1.35
2023-05-19T18:52:34.149Z,1.67
2023-05-19T18:55:01.469Z,1.23
2023-05-19T18:57:30.056Z,1.60
2023-05-19T18:59:58.024Z,1.20
2023-05-19T19:02:25.299Z,1.50
2023-05-19T19:04:52.709Z,1.75
2023-05-19T19:07:20.038Z,1.50
2023-05-19T19:09:47.262Z,1.67
2023-05-19T19:12:14.491Z,1.33
2023-05-19T19:14:43.060Z,1.60
2023-05-19T19:17:10.370Z,1.67
2023-05-19T19:19:37.821Z,2.13
2023-05-19T19:22:05.354Z,2.38
2023-05-19T19:24:32.769Z,2.47
2023-05-19T19:27:00.003Z,2.80
2023-05-19T19:29:27.350Z,2.63
2023-05-19T19:31:56.211Z,2.67
2023-05-19T19:34:23.597Z,2.90
2023-05-19T19:36:51.026Z,3.10
2023-05-19T19:39:18.276Z,2.92
2023-05-19T19:41:45.523Z,3.15
2023-05-19T19:44:13.443Z,2.75
2023-05-19T19:46:40.706Z,2.53
2023-05-19T19:49:09.301Z,2.55
2023-05-19T19:51:36.533Z,2.70
2023-05-19T19:54:03.771Z,2.47
2023-05-19T19:56:31.042Z,2.53
2023-05-19T19:58:59.289Z,2.55
2023-05-19T20:01:27.527Z,2.63
2023-05-19T20:03:55.449Z,2.60
2023-05-19T20:06:24.082Z,2.53
2023-05-19T20:08:51.359Z,2.50
2023-05-19T20:11:19.715Z,2.25
2023-05-19T20:13:47.457Z,2.30
2023-05-19T20:16:14.712Z,2.55
2023-05-19T20:18:42.062Z,2.35
2023-05-19T20:21:09.335Z,2.35
2023-05-19T20:23:38.774Z,2.10
2023-05-19T20:28:37.109Z,2.00
2023-05-19T20:31:04.389Z,2.15
2023-05-19T20:33:31.765Z,2.40
2023-05-19T20:35:59.015Z,2.10
2023-05-19T20:38:26.293Z,2.33
2023-05-19T20:40:55.574Z,2.20
2023-05-19T20:43:22.826Z,2.27
2023-05-19T20:45:50.121Z,1.90
2023-05-19T20:48:17.415Z,2.00
2023-05-19T20:50:44.757Z,2.13
2023-05-19T20:53:11.997Z,2.42
2023-05-19T20:55:39.346Z,2.10
2023-05-19T20:58:08.015Z,2.03
2023-05-19T21:00:35.507Z,2.00
2023-05-19T21:03:02.958Z,2.22
2023-05-19T21:05:30.277Z,2.05
2023-05-19T21:07:57.521Z,2.30
2023-05-19T21:10:24.753Z,1.90
2023-05-19T21:12:52.001Z,1.88
2023-05-19T21:15:20.841Z,1.83
2023-05-19T21:17:48.113Z,1.73
2023-05-19T21:20:15.386Z,2.10
2023-05-19T21:22:42.643Z,2.22
2023-05-19T21:25:09.999Z,2.00
2023-05-19T21:27:39.328Z,1.60
2023-05-19T21:30:07.220Z,1.85
2023-05-19T21:32:36.066Z,1.90
2023-05-19T21:35:03.461Z,1.90
2023-05-19T21:37:30.724Z,2.17
2023-05-19T21:39:58.079Z,1.70
2023-05-19T21:42:25.576Z,2.08
2023-05-19T21:44:52.832Z,1.90
2023-05-19T21:47:20.064Z,1.80
2023-05-19T21:49:48.631Z,2.10
2023-05-19T21:52:15.967Z,1.98
2023-05-19T21:54:43.208Z,1.80
2023-05-19T21:57:11.099Z,2.13
2023-05-19T21:59:38.351Z,1.60
2023-05-19T22:02:06.156Z,1.85
2023-05-19T22:04:33.582Z,1.83
2023-05-19T22:07:02.151Z,1.95
2023-05-19T22:09:29.539Z,1.75
2023-05-19T22:11:56.814Z,1.80
2023-05-19T22:14:24.071Z,1.85
2023-05-19T22:16:51.402Z,2.00
2023-05-19T22:19:19.825Z,2.00
2023-05-19T22:21:47.184Z,2.00
2023-05-19T22:24:16.018Z,1.73
2023-05-19T22:26:43.321Z,1.88
2023-05-19T22:29:14.908Z,2.10
2023-05-19T22:31:42.158Z,2.38
2023-05-19T22:34:09.406Z,2.47
2023-05-19T22:36:36.733Z,1.80
2023-05-19T22:39:04.252Z,1.92
2023-05-19T22:41:32.812Z,2.03
2023-05-19T22:44:00.068Z,1.90
2023-05-19T22:46:27.473Z,2.00
2023-05-19T22:48:54.809Z,1.90
2023-05-19T22:51:22.062Z,2.08
2023-05-19T22:53:49.291Z,1.88
2023-05-19T22:56:17.083Z,2.00
2023-05-19T22:58:45.646Z,1.95
2023-05-19T23:01:12.989Z,1.90
2023-05-19T23:03:40.368Z,1.80
2023-05-19T23:06:07.651Z,1.90
2023-05-19T23:08:34.909Z,1.80
2023-05-19T23:11:02.407Z,1.80
2023-05-19T23:13:31.117Z,1.90
2023-05-19T23:15:59.658Z,1.77
2023-05-19T23:18:26.919Z,1.70
2023-05-19T23:20:54.130Z,1.65
2023-05-19T23:23:21.379Z,1.73
2023-05-19T23:25:48.619Z,1.90
2023-05-19T23:28:15.890Z,1.92
2023-05-19T23:30:43.120Z,1.90
2023-05-19T23:33:11.713Z,2.00
2023-05-19T23:35:39.585Z,1.70
2023-05-19T23:38:06.872Z,1.77
2023-05-19T23:40:34.131Z,1.70
2023-05-19T23:43:01.410Z,1.73
2023-05-19T23:45:28.647Z,1.95
2023-05-19T23:47:55.915Z,1.70
2023-05-19T23:50:24.480Z,1.80
2023-05-19T23:52:51.825Z,1.67
2023-05-19T23:55:20.019Z,1.85
2023-05-19T23:57:47.268Z,1.85
